Time;durP1;ratioP1;P1;durP2;ratioP2;P2;SDS_P1;SDS_P2;PMS_P1;PMS_P2;Temp;Humidity;BMP_temperature;BMP_pressure;BME280_temperature;BME280_humidity;BME280_pressure;Samples;Min_cycle;Max_cycle;Signal;HPM_P1;HPM_P2
2021/11/19 00:00:38;;;;;;;14.90;5.72;;;;;;;9.56;100.00;102967.00;5073925;28;20103;-75
2021/11/19 00:03:04;;;;;;;19.60;5.07;;;;;;;9.56;100.00;102964.34;5055641;28;20431;-75
2021/11/19 00:05:30;;;;;;;19.98;4.72;;;;;;;9.56;100.00;102959.03;5074015;28;20036;-75
2021/11/19 00:07:56;;;;;;;18.52;5.05;;;;;;;9.59;100.00;102958.88;5073325;28;20032;-75
2021/11/19 00:10:22;;;;;;;18.30;5.57;;;;;;;9.63;100.00;102961.28;5056095;28;20040;-76
2021/11/19 00:12:48;;;;;;;21.67;5.57;;;;;;;9.73;100.00;102968.75;5073117;28;20033;-75
2021/11/19 00:15:14;;;;;;;14.50;4.43;;;;;;;9.79;100.00;102969.31;5073397;28;20047;-75
2021/11/19 00:17:40;;;;;;;15.45;4.30;;;;;;;9.87;100.00;102977.72;5073414;28;20029;-75
2021/11/19 00:20:08;;;;;;;16.55;4.50;;;;;;;9.95;100.00;102981.78;5073546;28;20032;-75
2021/11/19 00:22:34;;;;;;;24.33;5.50;;;;;;;9.99;100.00;102975.34;5073704;28;20492;-75
2021/11/19 00:24:59;;;;;;;14.73;4.35;;;;;;;10.06;100.00;102974.94;5073331;28;20043;-75
2021/11/19 00:27:25;;;;;;;16.90;5.03;;;;;;;10.11;100.00;102981.81;5055838;28;20036;-75
2021/11/19 00:29:52;;;;;;;26.63;5.10;;;;;;;10.17;100.00;102981.47;5072725;28;20476;-74
2021/11/19 00:32:17;;;;;;;12.00;3.92;;;;;;;10.21;100.00;102978.56;5073033;28;20047;-76
2021/11/19 00:34:44;;;;;;;11.52;3.45;;;;;;;10.24;100.00;102980.19;5072687;28;20058;-76
2021/11/19 00:37:10;;;;;;;15.70;4.22;;;;;;;10.30;100.00;102981.63;5073321;28;20032;-75
2021/11/19 00:39:36;;;;;;;17.02;4.20;;;;;;;10.30;100.00;102973.66;5073430;28;20488;-75
2021/11/19 00:42:03;;;;;;;18.17;4.15;;;;;;;10.32;100.00;102977.09;5072472;28;20029;-75
2021/11/19 00:44:29;;;;;;;12.57;3.63;;;;;;;10.37;100.00;102975.06;5072501;28;20480;-74
2021/11/19 00:46:55;;;;;;;17.30;4.50;;;;;;;10.45;100.00;102975.50;5072226;28;20066;-75
2021/11/19 00:49:24;;;;;;;14.73;4.03;;;;;;;10.49;100.00;102969.03;5072861;28;20020;-76
2021/11/19 00:51:54;;;;;;;19.65;4.63;;;;;;;10.51;100.00;102979.59;5072538;28;20066;-77
2021/11/19 00:54:20;;;;;;;16.27;3.92;;;;;;;10.58;100.00;102963.22;5054870;28;20032;-76
2021/11/19 00:56:50;;;;;;;24.25;4.13;;;;;;;10.62;100.00;102971.03;5072314;28;20036;-78
2021/11/19 00:59:18;;;;;;;13.10;4.28;;;;;;;10.71;100.00;102966.03;5072909;28;20035;-74
2021/11/19 01:01:57;;;;;;;15.95;4.38;;;;;;;10.75;100.00;102966.72;5072869;28;20035;-76
2021/11/19 01:04:23;;;;;;;15.50;4.22;;;;;;;10.74;100.00;102970.31;5072837;28;20039;-75
2021/11/19 01:06:49;;;;;;;12.07;3.78;;;;;;;10.73;100.00;102964.16;5054539;28;20041;-75
2021/11/19 01:09:36;;;;;;;10.00;3.80;;;;;;;10.75;100.00;102970.22;5072671;28;20028;-75
2021/11/19 01:12:04;;;;;;;18.05;4.80;;;;;;;10.76;100.00;102969.31;5072210;28;20509;-76
2021/11/19 01:14:38;;;;;;;16.83;4.50;;;;;;;10.81;100.00;102960.16;5072457;28;20035;-75
2021/11/19 01:17:08;;;;;;;13.85;4.07;;;;;;;10.80;100.00;102961.97;5072278;28;20062;-75
2021/11/19 01:19:47;;;;;;;12.57;4.13;;;;;;;10.78;100.00;102961.22;5072480;28;20468;-75
2021/11/19 01:22:19;;;;;;;19.33;5.05;;;;;;;10.81;100.00;102961.03;5072418;28;20028;-75
2021/11/19 01:24:44;;;;;;;;;;;;;;;10.83;100.00;102971.59;5072865;28;20035;-75
2021/11/19 01:27:10;;;;;;;18.48;5.18;;;;;;;10.86;100.00;102966.09;5063858;22;19920;-81
2021/11/19 01:29:36;;;;;;;18.27;5.07;;;;;;;10.85;100.00;102964.38;5047854;22;20053;-75
2021/11/19 01:32:08;;;;;;;19.63;4.43;;;;;;;10.86;100.00;102960.78;5046499;22;20140;-77
2021/11/19 01:34:34;;;;;;;15.52;4.78;;;;;;;10.84;100.00;102962.66;5064194;22;20054;-75
2021/11/19 01:37:00;;;;;;;15.65;5.05;;;;;;;10.85;100.00;102957.25;5030974;28;20052;-74
2021/11/19 01:39:27;;;;;;;20.90;5.13;;;;;;;10.88;100.00;102954.41;5032568;28;20045;-75
2021/11/19 01:41:57;;;;;;;16.27;5.70;;;;;;;10.96;100.00;102969.06;5030641;28;20087;-74
2021/11/19 01:44:27;;;;;;;18.92;5.45;;;;;;;10.93;100.00;102968.31;5031140;28;20045;-74
2021/11/19 01:46:55;;;;;;;18.00;5.32;;;;;;;10.94;100.00;102970.03;5031936;28;20029;-75
2021/11/19 01:49:22;;;;;;;18.83;5.53;;;;;;;10.96;100.00;102961.06;5032105;28;20039;-76
2021/11/19 01:52:11;;;;;;;17.77;6.07;;;;;;;10.97;100.00;102960.97;5032295;28;20036;-75
2021/11/19 01:54:50;;;;;;;14.77;5.57;;;;;;;10.96;100.00;102953.09;5031490;28;20029;-75
2021/11/19 01:57:21;;;;;;;18.05;5.40;;;;;;;10.96;100.00;102958.41;5035868;28;20052;-77
2021/11/19 01:59:55;;;;;;;23.52;5.65;;;;;;;10.98;100.00;102953.88;5036060;28;20021;-76
2021/11/19 02:02:25;;;;;;;16.55;5.65;;;;;;;10.97;100.00;102962.81;5036130;28;20036;-74
2021/11/19 02:05:07;;;;;;;23.40;5.95;;;;;;;10.97;100.00;102950.34;5036373;28;20068;-77
2021/11/19 02:07:37;;;;;;;24.27;6.03;;;;;;;10.99;100.00;102956.44;5036378;28;20033;-75
2021/11/19 02:10:47;;;;;;;19.45;5.28;;;;;;;11.01;100.00;102959.88;5035721;28;20040;-76
2021/11/19 02:13:26;;;;;;;23.52;6.05;;;;;;;11.05;100.00;102961.41;5035657;28;20036;-75
2021/11/19 02:16:14;;;;;;;28.90;6.68;;;;;;;11.08;100.00;102955.91;5034956;28;20046;-75
2021/11/19 02:18:47;;;;;;;17.92;5.30;;;;;;;11.06;100.00;102960.47;5035916;28;20033;-75
2021/11/19 02:21:21;;;;;;;17.90;5.85;;;;;;;11.09;100.00;102959.41;5035639;28;20026;-75
2021/11/19 02:24:10;;;;;;;17.17;5.20;;;;;;;11.13;100.00;102966.28;5035985;28;20122;-75
2021/11/19 02:26:47;;;;;;;26.17;6.30;;;;;;;11.13;100.00;102947.63;5035705;28;20505;-75
2021/11/19 02:29:13;;;;;;;21.45;5.85;;;;;;;11.11;100.00;102949.53;5035169;28;20025;-75
2021/11/19 02:31:54;;;;;;;16.55;6.28;;;;;;;11.09;100.00;102940.75;5035544;28;20029;-75
2021/11/19 02:34:21;;;;;;;24.30;6.35;;;;;;;11.07;100.00;102948.00;5035345;28;20477;-74
2021/11/19 02:37:24;;;;;;;22.92;5.90;;;;;;;11.09;100.00;102943.41;5035471;28;20072;-75
2021/11/19 02:40:01;;;;;;;19.00;5.95;;;;;;;11.09;100.00;102936.31;5035710;28;20473;-75
2021/11/19 02:42:31;;;;;;;19.90;6.30;;;;;;;11.10;99.81;102934.50;5035589;28;20033;-75
2021/11/19 02:44:59;;;;;;;15.18;6.00;;;;;;;11.14;99.91;102938.69;5035465;28;20037;-75
2021/11/19 02:47:27;;;;;;;25.17;6.00;;;;;;;11.13;99.34;102931.63;5035243;28;20072;-75
2021/11/19 02:49:53;;;;;;;20.90;6.75;;;;;;;11.09;99.18;102933.66;5035152;28;20029;-76
2021/11/19 02:52:23;;;;;;;31.58;6.82;;;;;;;11.07;99.15;102929.34;5033702;28;20044;-76
2021/11/19 02:54:50;;;;;;;22.42;6.40;;;;;;;11.09;99.13;102930.09;5034139;28;20487;-75
2021/11/19 02:57:17;;;;;;;21.90;6.60;;;;;;;11.06;98.81;102927.63;5034740;28;20484;-76
2021/11/19 02:59:44;;;;;;;21.52;6.82;;;;;;;11.04;98.90;102926.88;5035148;28;20034;-75
2021/11/19 03:02:13;;;;;;;21.90;7.05;;;;;;;11.05;99.09;102932.09;5033254;28;20037;-76
2021/11/19 03:04:45;;;;;;;17.58;6.28;;;;;;;11.07;98.71;102935.53;5034893;28;20029;-76
2021/11/19 03:07:11;;;;;;;21.80;6.68;;;;;;;11.08;98.81;102931.06;5034295;28;20041;-76
2021/11/19 03:09:43;;;;;;;18.52;6.38;;;;;;;11.07;98.84;102934.69;5034933;28;20042;-76
2021/11/19 03:12:10;;;;;;;;;;;;;;;11.07;98.82;102937.34;5033679;28;20474;-75
2021/11/19 03:14:36;;;;;;;18.52;6.57;;;;;;;11.09;98.75;102930.97;5034675;28;19948;-75
2021/11/19 03:17:04;;;;;;;20.88;7.38;;;;;;;11.14;98.69;102937.81;5034212;28;20033;-75
2021/11/19 03:19:30;;;;;;;16.40;6.22;;;;;;;11.16;98.41;102936.78;5033938;28;20021;-75
2021/11/19 03:21:56;;;;;;;23.08;6.75;;;;;;;11.16;98.21;102941.28;5034827;28;20065;-75
2021/11/19 03:24:22;;;;;;;18.58;6.95;;;;;;;11.16;98.07;102936.78;5034266;28;20649;-76
2021/11/19 03:26:50;;;;;;;20.45;7.15;;;;;;;11.18;98.29;102940.25;5033417;28;20522;-76
2021/11/19 03:29:16;;;;;;;19.08;6.80;;;;;;;11.13;98.25;102936.97;5034153;28;20031;-76
2021/11/19 03:31:43;;;;;;;24.98;7.75;;;;;;;11.13;98.02;102936.97;5034468;28;20060;-76
2021/11/19 03:34:10;;;;;;;24.05;8.02;;;;;;;11.14;97.78;102928.03;5034138;28;20107;-76
2021/11/19 03:36:38;;;;;;;25.17;7.68;;;;;;;11.16;97.92;102941.28;5034164;28;20129;-76
2021/11/19 03:39:06;;;;;;;18.88;7.60;;;;;;;11.13;97.75;102934.31;5034072;28;20026;-78
2021/11/19 03:41:35;;;;;;;17.70;6.55;;;;;;;11.15;97.51;102940.41;5034358;28;20153;-76
2021/11/19 03:44:06;;;;;;;24.13;7.55;;;;;;;11.14;97.73;102932.50;5032930;28;20025;-75
2021/11/19 03:47:07;;;;;;;21.15;6.85;;;;;;;11.14;97.09;102938.69;5034189;28;20033;-77
2021/11/19 03:49:34;;;;;;;22.25;7.22;;;;;;;11.18;97.42;102939.34;5002242;28;20064;-76
2021/11/19 03:52:14;;;;;;;15.95;6.85;;;;;;;11.19;97.20;102946.41;5033022;28;20470;-76
2021/11/19 03:54:42;;;;;;;22.85;6.72;;;;;;;11.19;97.33;102941.09;5033932;28;20041;-76
2021/11/19 03:57:10;;;;;;;19.65;6.80;;;;;;;11.17;97.32;102940.31;5033578;28;20370;-77
2021/11/19 03:59:35;;;;;;;18.98;6.97;;;;;;;11.18;97.30;102945.56;5034088;28;20029;-76
2021/11/19 04:02:02;;;;;;;19.17;6.78;;;;;;;11.16;97.74;102946.59;5034302;28;20041;-76
2021/11/19 04:04:30;;;;;;;18.17;6.75;;;;;;;11.14;97.75;102940.47;5033632;28;20080;-75
2021/11/19 04:06:59;;;;;;;20.45;7.65;;;;;;;11.17;97.53;102949.16;5033833;28;20030;-75
2021/11/19 04:09:25;;;;;;;22.10;6.80;;;;;;;11.19;97.53;102949.91;5033440;28;20038;-75
2021/11/19 04:11:50;;;;;;;21.52;6.05;;;;;;;11.19;97.13;102943.75;5034100;28;20557;-76
2021/11/19 04:14:16;;;;;;;25.65;7.22;;;;;;;11.16;97.48;102943.94;5033336;28;20033;-75
2021/11/19 04:16:44;;;;;;;20.38;6.18;;;;;;;11.18;96.95;102950.00;5033731;28;20033;-76
2021/11/19 04:19:13;;;;;;;21.05;6.40;;;;;;;11.18;97.19;102952.69;5032862;28;20091;-76
2021/11/19 04:21:39;;;;;;;20.85;6.10;;;;;;;11.21;97.26;102956.03;5033541;28;20025;-75
2021/11/19 04:24:06;;;;;;;19.15;5.97;;;;;;;11.18;97.03;102952.69;5033619;28;20061;-76
2021/11/19 04:26:34;;;;;;;23.10;6.25;;;;;;;11.19;96.33;102951.75;5032985;28;20044;-76
2021/11/19 04:29:00;;;;;;;25.40;6.13;;;;;;;11.22;96.07;102959.53;5033495;28;20478;-76
2021/11/19 04:31:28;;;;;;;17.33;5.65;;;;;;;11.21;95.88;102961.38;5033001;28;20128;-75
2021/11/19 04:33:53;;;;;;;19.73;5.30;;;;;;;11.22;95.94;102957.72;5033239;28;20033;-76
2021/11/19 04:36:19;;;;;;;16.83;5.50;;;;;;;11.23;95.83;102956.78;5032840;28;20111;-75
2021/11/19 04:38:46;;;;;;;14.73;5.38;;;;;;;11.21;95.84;102953.38;5033215;28;20057;-75
2021/11/19 04:41:12;;;;;;;16.75;5.07;;;;;;;11.22;95.93;102954.22;5033164;28;20021;-79
2021/11/19 04:43:38;;;;;;;19.63;5.35;;;;;;;11.20;95.91;102951.66;5033441;28;20037;-77
2021/11/19 04:46:06;;;;;;;15.70;5.10;;;;;;;11.20;96.06;102954.31;5033250;28;20116;-77
2021/11/19 04:48:34;;;;;;;10.13;4.85;;;;;;;11.16;96.15;102949.25;5032638;28;20415;-75
2021/11/19 04:51:02;;;;;;;15.18;5.40;;;;;;;11.13;96.10;102950.28;5031985;28;20461;-74
2021/11/19 04:53:28;;;;;;;17.48;5.55;;;;;;;11.10;95.99;102956.66;5032553;28;20139;-75
2021/11/19 04:55:55;;;;;;;18.55;5.50;;;;;;;11.06;96.16;102954.25;5031858;28;20045;-75
2021/11/19 04:58:21;;;;;;;13.32;5.15;;;;;;;11.07;96.55;102961.31;5032453;28;20037;-76
2021/11/19 05:01:00;;;;;;;16.88;5.18;;;;;;;11.06;96.25;102951.59;5032861;28;20127;-75
2021/11/19 05:03:26;;;;;;;18.25;5.32;;;;;;;11.07;96.40;102948.00;5032372;28;20025;-75
2021/11/19 05:05:52;;;;;;;16.52;5.20;;;;;;;11.08;96.17;102949.72;5032989;28;20095;-75
2021/11/19 05:08:19;;;;;;;18.38;5.85;;;;;;;11.06;96.41;102954.25;5031150;28;20227;-75
2021/11/19 05:10:47;;;;;;;15.68;5.60;;;;;;;11.06;96.07;102951.59;5032521;28;20029;-75
2021/11/19 05:13:14;;;;;;;13.68;5.35;;;;;;;11.03;96.67;102950.00;5031447;28;20037;-76
2021/11/19 05:15:42;;;;;;;17.65;5.40;;;;;;;11.03;96.64;102946.44;5032190;28;20033;-75
2021/11/19 05:18:08;;;;;;;16.63;4.90;;;;;;;11.02;96.69;102942.94;5032566;28;20366;-75
2021/11/19 05:20:34;;;;;;;20.83;5.88;;;;;;;11.04;96.82;102948.19;5030970;28;20151;-75
2021/11/19 05:23:00;;;;;;;18.42;5.57;;;;;;;11.04;96.64;102945.50;5032538;28;20382;-75
2021/11/19 05:25:30;;;;;;;19.75;5.47;;;;;;;11.01;97.13;102946.53;5032101;28;20112;-74
2021/11/19 05:27:56;;;;;;;19.83;4.90;;;;;;;11.02;96.89;102942.09;5032649;28;20033;-75
2021/11/19 05:30:22;;;;;;;19.80;4.50;;;;;;;11.01;96.99;102948.38;5031999;28;20429;-75
2021/11/19 05:32:48;;;;;;;18.02;4.63;;;;;;;11.00;97.03;102950.19;5032622;28;20037;-75
2021/11/19 05:35:15;;;;;;;12.45;4.40;;;;;;;11.01;97.26;102951.88;5032222;28;20045;-75
2021/11/19 05:37:41;;;;;;;14.38;4.47;;;;;;;11.06;96.98;102956.94;5032140;28;20025;-75
2021/11/19 05:40:09;;;;;;;15.88;4.60;;;;;;;11.06;96.51;102947.16;5032340;28;20047;-75
2021/11/19 05:42:35;;;;;;;19.17;5.20;;;;;;;11.04;96.61;102953.50;5031771;28;20064;-76
2021/11/19 05:45:00;;;;;;;14.20;4.95;;;;;;;11.04;97.18;102951.69;5032219;28;20065;-75
2021/11/19 05:47:26;;;;;;;13.10;4.43;;;;;;;11.03;96.81;102952.66;5032000;28;20044;-76
2021/11/19 05:49:52;;;;;;;17.45;4.07;;;;;;;11.04;96.84;102953.50;5032335;28;20033;-76
2021/11/19 05:52:18;;;;;;;15.93;4.10;;;;;;;11.02;96.80;102950.94;5032263;28;20089;-76
2021/11/19 05:54:44;;;;;;;18.92;4.18;;;;;;;11.00;96.83;102957.28;5031887;28;20078;-76
2021/11/19 05:57:12;;;;;;;14.77;4.38;;;;;;;10.99;97.21;102960.91;5032528;28;20108;-77
2021/11/19 05:59:38;;;;;;;14.27;4.25;;;;;;;10.98;96.96;102957.38;5030528;28;20033;-76
2021/11/19 06:02:06;;;;;;;12.52;3.70;;;;;;;10.98;97.11;102961.88;5032286;28;20021;-76
2021/11/19 06:04:32;;;;;;;13.93;4.55;;;;;;;10.99;96.70;102959.09;5031643;28;20060;-76
2021/11/19 06:06:57;;;;;;;14.77;4.10;;;;;;;11.01;96.36;102957.19;5031030;28;20498;-76
2021/11/19 06:09:31;;;;;;;16.25;4.13;;;;;;;11.02;96.51;102955.41;5031745;28;20469;-77
2021/11/19 06:12:03;;;;;;;14.77;4.60;;;;;;;10.99;96.46;102964.44;5032027;28;20444;-76
2021/11/19 06:14:39;;;;;;;12.18;4.32;;;;;;;11.00;96.70;102970.59;5031514;28;20033;-76
2021/11/19 06:17:09;;;;;;;12.93;4.13;;;;;;;11.02;96.21;102966.06;5030934;28;20033;-75
2021/11/19 06:19:38;;;;;;;10.32;4.10;;;;;;;11.00;96.42;102960.84;5031353;28;20465;-75
2021/11/19 06:22:15;;;;;;;16.55;4.32;;;;;;;10.96;96.71;102961.06;5031967;28;20045;-75
2021/11/19 06:24:43;;;;;;;12.45;4.20;;;;;;;10.92;96.60;102955.94;5031509;28;20029;-75
2021/11/19 06:27:11;;;;;;;18.48;5.18;;;;;;;10.92;96.96;102958.59;5032086;28;20108;-75
2021/11/19 06:29:37;;;;;;;16.35;4.40;;;;;;;10.92;96.73;102965.75;5031414;28;20041;-76
2021/11/19 06:32:03;;;;;;;13.75;4.85;;;;;;;10.91;96.95;102961.34;5032018;28;20470;-75
2021/11/19 06:34:29;;;;;;;13.85;4.00;;;;;;;10.91;96.41;102967.56;5031319;28;20037;-76
2021/11/19 06:36:55;;;;;;;25.00;5.05;;;;;;;10.89;96.28;102966.75;5031804;28;20041;-75
2021/11/19 06:39:22;;;;;;;14.85;3.80;;;;;;;10.89;96.30;102963.25;5031758;28;20029;-75
2021/11/19 06:41:48;;;;;;;20.75;4.18;;;;;;;10.83;96.00;102966.28;5033281;28;20033;-76
2021/11/19 06:44:14;;;;;;;11.20;3.30;;;;;;;10.76;96.54;102963.09;5035328;28;20440;-75
2021/11/19 06:46:40;;;;;;;12.38;4.13;;;;;;;10.67;96.83;102967.13;5034825;28;20036;-74
2021/11/19 06:49:07;;;;;;;13.40;4.28;;;;;;;10.60;97.21;102973.78;5035334;28;20057;-77
2021/11/19 06:51:32;;;;;;;19.48;3.83;;;;;;;10.58;97.37;102978.31;5034845;28;20084;-75
2021/11/19 06:53:58;;;;;;;16.73;3.90;;;;;;;10.59;97.84;102974.72;5035086;28;20037;-75
2021/11/19 06:56:24;;;;;;;12.88;3.60;;;;;;;10.58;98.00;102980.97;5035340;28;20083;-75
2021/11/19 06:58:50;;;;;;;14.82;4.03;;;;;;;10.56;98.03;102983.72;5034747;28;20041;-75
2021/11/19 07:01:17;;;;;;;18.92;4.13;;;;;;;10.55;97.76;102989.13;5035202;28;20037;-75
2021/11/19 07:03:47;;;;;;;13.90;3.55;;;;;;;10.52;98.11;102984.00;5034440;28;20040;-77
2021/11/19 07:06:15;;;;;;;17.25;4.63;;;;;;;10.48;98.37;102991.31;5034875;28;20108;-76
2021/11/19 07:08:41;;;;;;;13.60;3.67;;;;;;;10.47;98.49;102994.91;5034589;28;20061;-77
2021/11/19 07:11:11;;;;;;;19.70;3.95;;;;;;;10.50;98.42;102996.53;5035353;28;20068;-77
2021/11/19 07:13:37;;;;;;;15.32;3.47;;;;;;;10.48;98.54;102990.44;5034670;28;20104;-77
2021/11/19 07:16:02;;;;;;;9.88;3.80;;;;;;;10.48;98.45;102999.28;5033569;28;20069;-77
2021/11/19 07:18:29;;;;;;;15.27;4.28;;;;;;;10.45;98.04;102999.47;5033942;28;20037;-75
2021/11/19 07:20:55;;;;;;;17.00;3.28;;;;;;;10.40;97.96;103007.69;5034721;28;20030;-78
2021/11/19 07:23:22;;;;;;;10.23;3.75;;;;;;;10.41;98.07;103013.88;5035413;28;20117;-73
2021/11/19 07:25:48;;;;;;;14.35;3.50;;;;;;;10.43;98.65;103003.16;5016652;28;20037;-72
2021/11/19 07:28:14;;;;;;;11.50;3.72;;;;;;;10.43;98.59;103011.13;5034795;28;20100;-74
2021/11/19 07:30:56;;;;;;;18.33;4.53;;;;;;;10.47;98.66;103013.53;5015405;28;20037;-73
2021/11/19 07:33:23;;;;;;;20.20;4.07;;;;;;;10.50;98.44;103020.50;5012344;28;20034;-77
2021/11/19 07:35:49;;;;;;;11.00;3.22;;;;;;;10.51;98.33;103020.41;5011946;28;20093;-76
2021/11/19 07:38:16;;;;;;;13.38;4.30;;;;;;;10.51;98.53;103020.41;5012555;28;20529;-76
2021/11/19 07:40:44;;;;;;;14.18;3.55;;;;;;;10.53;98.40;103020.31;5011605;28;20108;-77
2021/11/19 07:43:10;;;;;;;13.88;4.20;;;;;;;10.59;98.24;103022.63;5010243;28;20053;-76
2021/11/19 07:45:37;;;;;;;14.73;3.55;;;;;;;10.65;98.00;103013.44;5011761;28;20390;-77
2021/11/19 07:48:14;;;;;;;16.83;3.78;;;;;;;10.68;97.39;103031.91;5010552;28;20033;-76
2021/11/19 07:50:42;;;;;;;17.13;3.47;;;;;;;10.74;97.56;103034.22;5011755;28;20030;-76
2021/11/19 07:53:08;;;;;;;13.52;3.50;;;;;;;10.77;97.35;103031.38;5011328;28;20181;-74
2021/11/19 07:55:35;;;;;;;13.50;3.63;;;;;;;10.84;97.08;103035.44;5010431;28;20521;-75
2021/11/19 07:58:01;;;;;;;11.27;3.30;;;;;;;10.86;96.71;103035.34;5011508;28;20053;-74
2021/11/19 08:00:29;;;;;;;14.73;3.75;;;;;;;10.88;96.55;103036.97;5011869;28;20091;-77
2021/11/19 08:02:55;;;;;;;11.70;2.85;;;;;;;10.91;96.54;103046.56;5009527;28;20057;-75
2021/11/19 08:05:22;;;;;;;20.77;3.58;;;;;;;10.93;96.47;103048.22;5010804;28;20065;-75
2021/11/19 08:07:47;;;;;;;17.30;3.20;;;;;;;10.98;96.58;103042.63;5011034;28;20030;-77
2021/11/19 08:10:14;;;;;;;12.45;3.25;;;;;;;11.01;96.03;103049.59;5011158;28;20037;-76
2021/11/19 08:12:40;;;;;;;18.23;4.03;;;;;;;11.05;96.03;103049.31;5010977;28;20520;-74
2021/11/19 08:15:07;;;;;;;13.68;4.07;;;;;;;11.12;95.97;103044.47;5011231;28;20026;-75
2021/11/19 08:17:44;;;;;;;16.98;3.95;;;;;;;11.14;95.85;103042.59;5011084;28;20450;-77
2021/11/19 08:20:15;;;;;;;10.63;2.92;;;;;;;11.20;95.52;103049.41;5011230;28;20045;-76
2021/11/19 08:22:41;;;;;;;16.10;3.63;;;;;;;11.19;95.42;103043.19;5010561;28;20041;-76
2021/11/19 08:25:08;;;;;;;14.45;3.45;;;;;;;11.19;95.36;103042.34;5011452;28;20377;-75
2021/11/19 08:27:39;;;;;;;13.00;3.20;;;;;;;11.19;95.50;103039.66;5010722;28;20067;-77
2021/11/19 08:30:12;;;;;;;12.10;3.40;;;;;;;11.22;95.10;103043.00;5010894;28;20037;-76
2021/11/19 08:32:37;;;;;;;18.15;3.80;;;;;;;11.27;94.79;103040.94;5009742;28;20026;-76
2021/11/19 08:35:04;;;;;;;16.90;4.60;;;;;;;11.32;94.42;103047.81;5010317;28;20092;-76
2021/11/19 08:37:31;;;;;;;13.30;3.00;;;;;;;11.31;94.72;103041.59;5023076;28;20545;-76
2021/11/19 08:39:57;;;;;;;9.63;3.55;;;;;;;11.34;94.04;103048.56;5029998;28;20033;-76
2021/11/19 08:42:23;;;;;;;15.48;3.38;;;;;;;11.40;93.62;103045.53;5031368;28;20115;-76
2021/11/19 08:44:50;;;;;;;14.35;3.53;;;;;;;11.43;93.03;103045.38;5032885;28;20044;-75
2021/11/19 08:47:18;;;;;;;10.68;3.35;;;;;;;11.43;92.46;103056.03;5033096;28;20470;-76
2021/11/19 08:49:44;;;;;;;10.73;3.25;;;;;;;11.29;92.86;103055.03;5032670;28;20076;-75
2021/11/19 08:52:12;;;;;;;10.40;3.40;;;;;;;11.25;92.60;103057.97;5032849;28;20033;-74
2021/11/19 08:54:39;;;;;;;12.60;3.45;;;;;;;11.16;93.06;103059.34;5033180;28;20032;-75
2021/11/19 08:57:10;;;;;;;12.90;4.05;;;;;;;11.07;93.34;103059.88;5032678;28;20037;-75
2021/11/19 08:59:38;;;;;;;15.32;3.90;;;;;;;11.07;94.04;103062.56;5033260;28;20021;-75
2021/11/19 09:02:09;;;;;;;10.18;3.10;;;;;;;11.09;93.49;103066.84;5032476;28;20037;-76
2021/11/19 09:04:34;;;;;;;12.27;3.63;;;;;;;11.16;93.42;103058.50;5032520;28;20029;-77
2021/11/19 09:07:02;;;;;;;13.30;3.90;;;;;;;11.24;93.51;103064.22;5032361;28;20033;-76
2021/11/19 09:09:29;;;;;;;13.55;3.85;;;;;;;11.37;92.83;103067.91;5032657;28;20038;-76
2021/11/19 09:11:55;;;;;;;11.88;3.30;;;;;;;11.42;92.13;103064.97;5031097;28;20038;-77
2021/11/19 09:14:22;;;;;;;13.18;3.03;;;;;;;11.49;91.75;103068.97;5032774;28;20026;-76
2021/11/19 09:17:09;;;;;;;12.88;3.25;;;;;;;11.54;91.87;103068.72;5031081;28;20032;-77
2021/11/19 09:19:40;;;;;;;9.63;3.05;;;;;;;11.61;92.12;103067.41;5029260;28;20120;-78
2021/11/19 09:22:32;;;;;;;10.82;3.10;;;;;;;11.76;91.00;103069.16;5037093;28;20561;-75
2021/11/19 09:24:59;;;;;;;12.10;3.15;;;;;;;11.92;90.46;103068.22;5011091;28;20030;-75
2021/11/19 09:27:26;;;;;;;11.60;3.45;;;;;;;12.06;88.46;103070.06;5012039;28;20036;-74
2021/11/19 09:30:03;;;;;;;14.13;3.35;;;;;;;12.08;87.82;103071.69;5011503;28;20044;-75
2021/11/19 09:32:29;;;;;;;10.27;2.92;;;;;;;11.98;88.17;103073.22;5011750;28;20056;-73
2021/11/19 09:34:58;;;;;;;11.40;3.33;;;;;;;11.82;89.27;103067.91;5011268;28;20450;-76
2021/11/19 09:37:25;;;;;;;12.98;3.38;;;;;;;11.69;90.34;103077.59;5011878;28;20042;-75
2021/11/19 09:39:52;;;;;;;11.88;2.95;;;;;;;11.64;90.28;103067.22;5011421;28;20096;-77
2021/11/19 09:42:44;;;;;;;17.88;3.15;;;;;;;11.75;90.16;103075.44;5011931;28;20029;-77
2021/11/19 09:45:36;;;;;;;11.43;3.47;;;;;;;11.91;89.58;103071.84;5010039;28;20024;-76
2021/11/19 09:48:07;;;;;;;;;;;;;;;12.18;88.71;103079.97;5011781;28;20104;-77
2021/11/19 09:50:32;;;;;;;9.65;2.53;;;;;;;12.35;87.47;103069.13;5011734;28;20475;-79
2021/11/19 09:53:26;;;;;;;12.45;3.05;;;;;;;12.45;87.64;103079.22;5011219;28;20116;-78
2021/11/19 09:56:20;;;;;;;12.52;2.75;;;;;;;12.34;86.57;103071.88;5011555;28;20110;-77
2021/11/19 09:58:54;;;;;;;13.52;2.65;;;;;;;12.24;86.55;103079.63;5011656;28;20035;-78
2021/11/19 10:01:52;;;;;;;8.00;2.63;;;;;;;12.13;87.31;103080.28;5010524;28;20041;-76
2021/11/19 10:04:31;;;;;;;11.82;2.65;;;;;;;12.08;87.10;103074.38;5012043;28;20053;-77
2021/11/19 10:07:08;;;;;;;14.82;2.92;;;;;;;12.08;87.86;103079.72;5011101;28;20022;-75
2021/11/19 10:09:48;;;;;;;17.05;3.35;;;;;;;12.12;87.15;103085.69;5011438;28;20026;-75
2021/11/19 10:12:21;;;;;;;8.13;2.50;;;;;;;12.19;87.33;103088.88;5011308;28;20069;-80
2021/11/19 10:15:19;;;;;;;13.13;2.55;;;;;;;12.30;86.55;103083.69;5011647;28;20033;-75
2021/11/19 10:18:20;;;;;;;11.00;2.78;;;;;;;12.39;85.60;103088.50;5012346;28;20495;-72
2021/11/19 10:20:48;;;;;;;9.07;2.23;;;;;;;12.58;84.36;103082.81;4997905;28;20061;-71
2021/11/19 10:23:23;;;;;;;14.13;2.33;;;;;;;12.61;84.58;103084.44;5014708;28;20156;-73
2021/11/19 10:26:03;;;;;;;12.25;2.53;;;;;;;12.63;84.54;103088.75;5015277;28;20041;-73
2021/11/19 10:28:49;;;;;;;7.57;2.40;;;;;;;12.58;83.88;103092.66;5014965;28;20072;-74
2021/11/19 10:31:20;;;;;;;11.52;2.40;;;;;;;12.51;84.33;103077.03;5014639;28;20300;-73
2021/11/19 10:34:03;;;;;;;12.43;2.57;;;;;;;12.52;84.68;103076.09;5014840;28;20255;-71
2021/11/19 10:36:40;;;;;;;12.65;2.50;;;;;;;12.65;83.53;103083.31;5014864;28;20080;-69
2021/11/19 10:39:27;;;;;;;9.45;2.28;;;;;;;13.02;83.05;103080.94;5014259;28;20022;-71
2021/11/19 10:42:11;;;;;;;11.07;2.47;;;;;;;13.17;82.65;103073.72;5014867;28;20041;-74
2021/11/19 10:45:06;;;;;;;9.77;2.58;;;;;;;13.33;81.68;103068.19;5015085;28;20478;-74
2021/11/19 10:47:49;;;;;;;15.82;2.50;;;;;;;13.49;81.02;103078.75;5015121;28;20065;-76
2021/11/19 10:50:52;;;;;;;8.88;2.28;;;;;;;13.55;80.46;103081.88;5014524;28;20034;-75
2021/11/19 10:53:36;;;;;;;4.65;2.13;;;;;;;13.54;80.09;103073.94;5014103;28;20398;-76
2021/11/19 10:56:50;;;;;;;9.38;2.45;;;;;;;13.55;79.42;103072.97;5014312;28;20057;-74
2021/11/19 10:59:19;;;;;;;10.55;2.42;;;;;;;13.38;79.40;103079.47;4992378;28;20026;-74
2021/11/19 11:02:31;;;;;;;13.57;2.67;;;;;;;13.23;80.31;103067.97;5012290;28;20090;-72
2021/11/19 11:05:00;;;;;;;8.93;2.13;;;;;;;13.20;80.07;103076.19;4992499;28;20080;-74
2021/11/19 11:08:06;;;;;;;13.25;2.65;;;;;;;13.11;81.11;103082.16;5012008;28;20132;-75
2021/11/19 11:10:43;;;;;;;12.95;2.50;;;;;;;13.17;81.24;103073.72;5014291;28;20030;-74
2021/11/19 11:13:26;;;;;;;15.90;3.03;;;;;;;13.20;80.22;103081.53;5013711;28;20040;-73
2021/11/19 11:16:17;;;;;;;10.93;2.40;;;;;;;13.15;80.43;103070.28;5014318;28;20034;-73
2021/11/19 11:18:45;;;;;;;10.02;1.95;;;;;;;13.15;80.16;103081.84;5003774;28;20041;-71
2021/11/19 11:21:32;;;;;;;11.75;2.05;;;;;;;13.11;80.34;103083.00;5012378;28;20092;-73
2021/11/19 11:24:22;;;;;;;10.57;2.67;;;;;;;13.12;80.64;103075.81;5014413;28;20041;-75
2021/11/19 11:27:01;;;;;;;9.00;2.20;;;;;;;13.21;80.57;103077.88;5013721;28;20030;-73
2021/11/19 11:29:46;;;;;;;11.30;2.53;;;;;;;13.08;80.59;103075.19;5014424;28;20034;-73
2021/11/19 11:32:23;;;;;;;13.80;2.50;;;;;;;13.14;80.62;103076.59;5013508;28;20459;-74
2021/11/19 11:34:54;;;;;;;13.80;2.50;;;;;;;13.15;79.56;103070.28;5012584;28;20033;-73